Time;durP1;ratioP1;P1;durP2;ratioP2;P2;SDS_P1;SDS_P2;PMS_P1;PMS_P2;Temp;Humidity;BMP_temperature;BMP_pressure;BME280_temperature;BME280_humidity;BME280_pressure;Samples;Min_cycle;Max_cycle;Signal;HPM_P1;HPM_P2
2022/09/30 00:00:25;;;;;;;27.70;19.40;;;;;;;3.07;86.71;99911.09;86024;1290;98520;-59
2022/09/30 00:02:56;;;;;;;33.60;23.20;;;;;;;3.01;86.93;99914.32;86027;1290;87614;-59
2022/09/30 00:05:07;;;;;;;31.40;22.90;;;;;;;2.99;86.88;99913.08;85977;1290;94146;-59
2022/09/30 00:07:16;;;;;;;29.00;22.10;;;;;;;3.00;87.04;99912.15;86038;1290;81155;-61
2022/09/30 00:09:24;;;;;;;27.90;20.80;;;;;;;2.99;86.85;99912.23;86025;1290;81767;-61
2022/09/30 00:11:39;;;;;;;28.00;19.30;;;;;;;2.98;86.73;99911.23;86017;1290;98100;-58
2022/09/30 00:13:50;;;;;;;26.10;19.00;;;;;;;2.95;86.98;99903.17;86041;1297;88790;-58
2022/09/30 00:16:04;;;;;;;24.80;18.60;;;;;;;2.97;86.90;99904.19;85998;1290;94895;-60
2022/09/30 00:18:12;;;;;;;20.20;15.10;;;;;;;2.95;86.91;99904.44;86017;1290;81918;-60
2022/09/30 00:20:24;;;;;;;22.60;16.80;;;;;;;2.91;87.05;99905.34;86024;1296;82523;-60
2022/09/30 00:22:33;;;;;;;20.80;15.50;;;;;;;2.90;87.12;99908.30;85985;1290;97884;-61
2022/09/30 00:24:41;;;;;;;21.80;15.40;;;;;;;2.87;86.98;99917.66;85983;1290;89042;-61
2022/09/30 00:26:52;;;;;;;20.70;15.50;;;;;;;2.85;86.99;99919.86;86031;1290;95913;-61
2022/09/30 00:29:03;;;;;;;18.80;14.30;;;;;;;2.84;87.00;99920.81;86001;1291;81591;-61
2022/09/30 00:31:18;;;;;;;18.20;13.70;;;;;;;2.83;87.26;99922.14;86075;1290;82496;-62
2022/09/30 00:33:27;;;;;;;19.60;13.80;;;;;;;2.85;87.10;99924.82;86071;1291;98452;-64
2022/09/30 00:35:39;;;;;;;18.70;14.80;;;;;;;2.86;87.15;99922.89;86083;1291;89233;-63
2022/09/30 00:37:49;;;;;;;20.10;14.40;;;;;;;2.84;86.95;99924.77;86050;1290;95387;-59
2022/09/30 00:39:58;;;;;;;17.50;13.40;;;;;;;2.80;86.99;99920.84;86051;1295;79264;-59
2022/09/30 00:42:12;;;;;;;18.10;14.30;;;;;;;2.79;87.20;99916.89;86081;1292;81853;-62
2022/09/30 00:44:54;;;;;;;19.50;13.40;;;;;;;2.79;86.99;99918.49;86082;1290;98998;-62
2022/09/30 00:47:17;;;;;;;16.60;13.30;;;;;;;2.76;87.23;99921.84;85878;1297;86948;-58
2022/09/30 00:49:26;;;;;;;21.60;13.60;;;;;;;2.73;87.29;99919.77;86075;1290;93174;-58
2022/09/30 00:51:42;;;;;;;19.50;12.90;;;;;;;2.73;87.21;99921.79;86083;1291;80423;-61
2022/09/30 00:53:56;;;;;;;16.90;12.80;;;;;;;2.73;87.23;99919.27;86138;1294;80221;-61
2022/09/30 00:56:08;;;;;;;;;;;;;;;2.79;87.12;99922.59;86079;1290;98374;-61
2022/09/30 00:58:26;;;;;;;20.20;13.40;;;;;;;2.82;87.23;99931.83;86060;1297;87523;-60
2022/09/30 01:00:35;;;;;;;19.30;13.40;;;;;;;2.83;87.13;99925.77;86063;1298;92425;-60
2022/09/30 01:02:45;;;;;;;16.90;12.80;;;;;;;2.81;87.33;99921.64;86083;1290;78866;-58
2022/09/30 01:04:56;;;;;;;20.10;13.60;;;;;;;2.78;87.37;99919.45;86096;1290;81813;-58
2022/09/30 01:07:08;;;;;;;22.00;12.70;;;;;;;2.74;87.24;99917.36;86037;1290;98439;-61
2022/09/30 01:09:17;;;;;;;19.70;14.40;;;;;;;2.71;87.53;99924.64;86067;1290;88961;-61
2022/09/30 01:11:26;;;;;;;17.00;13.40;;;;;;;2.72;87.43;99929.29;86070;1297;94424;-59
2022/09/30 01:13:39;;;;;;;16.90;12.90;;;;;;;2.71;87.30;99930.84;86081;1282;81253;-59
2022/09/30 01:16:26;;;;;;;30.10;16.40;;;;;;;2.65;87.33;99924.20;86094;1290;82167;-60
2022/09/30 01:18:52;;;;;;;24.60;15.50;;;;;;;2.60;87.43;99922.13;86047;1296;97860;-59
2022/09/30 01:21:57;;;;;;;26.30;17.30;;;;;;;2.56;87.47;99918.45;86118;1290;88282;-59
2022/09/30 01:24:47;;;;;;;28.50;19.50;;;;;;;2.49;87.66;99916.19;85916;1294;95601;-59
2022/09/30 01:27:38;;;;;;;27.70;19.10;;;;;;;2.54;87.64;99915.99;86071;1291;78923;-60
2022/09/30 01:30:13;;;;;;;28.60;19.00;;;;;;;2.59;87.58;99909.33;86054;1298;80374;-59
2022/09/30 01:32:35;;;;;;;29.30;19.00;;;;;;;2.62;87.39;99913.67;86063;1289;98557;-61
2022/09/30 01:34:58;;;;;;;24.10;17.40;;;;;;;2.57;87.48;99923.13;86078;1290;86013;-62
2022/09/30 01:37:20;;;;;;;22.00;15.80;;;;;;;2.56;87.45;99926.61;85983;1301;94766;-59
2022/09/30 01:39:42;;;;;;;21.60;16.40;;;;;;;2.51;87.57;99928.72;86065;1291;80721;-59
2022/09/30 01:42:01;;;;;;;22.40;17.60;;;;;;;2.49;87.66;99924.55;86080;1290;81763;-59
2022/09/30 01:44:19;;;;;;;22.60;16.00;;;;;;;2.48;87.59;99927.45;86077;1290;97739;-59
2022/09/30 01:46:36;;;;;;;21.70;16.60;;;;;;;2.48;87.39;99932.98;86088;1290;88833;-61
2022/09/30 01:48:57;;;;;;;19.40;15.20;;;;;;;2.47;87.57;99935.77;86082;1294;93188;-62
2022/09/30 01:51:11;;;;;;;19.30;14.40;;;;;;;2.44;87.63;99940.47;86070;1290;80686;-62
2022/09/30 01:53:32;;;;;;;19.30;14.30;;;;;;;2.42;87.69;99939.61;86065;1290;81887;-63
2022/09/30 01:55:50;;;;;;;21.80;14.20;;;;;;;2.43;87.56;99946.41;86078;1290;99596;-62
2022/09/30 01:58:06;;;;;;;19.40;13.00;;;;;;;2.43;87.39;99952.50;86075;1291;87249;-62
2022/09/30 02:00:19;;;;;;;19.20;13.60;;;;;;;2.41;87.65;99955.89;86080;1290;94594;-62
2022/09/30 02:02:28;;;;;;;;;;;;;;;2.39;87.57;99960.26;86086;1290;81477;-59
2022/09/30 02:04:45;;;;;;;21.80;14.80;;;;;;;2.36;87.56;99964.64;86126;1289;82636;-59
2022/09/30 02:07:02;;;;;;;22.70;15.40;;;;;;;2.34;87.75;99966.48;86072;1292;98820;-62
2022/09/30 02:09:14;;;;;;;22.90;15.00;;;;;;;2.38;87.63;99967.71;86078;1291;88938;-62
2022/09/30 02:11:26;;;;;;;21.70;14.50;;;;;;;2.38;87.54;99968.05;86061;1291;94086;-59
2022/09/30 02:13:40;;;;;;;21.20;15.20;;;;;;;2.34;87.64;99969.73;86028;1290;81831;-58
2022/09/30 02:15:58;;;;;;;19.80;14.70;;;;;;;2.36;87.73;99972.45;86109;1298;82688;-61
2022/09/30 02:18:18;;;;;;;19.50;14.20;;;;;;;2.36;87.61;99978.48;86077;1291;98172;-61
2022/09/30 02:20:31;;;;;;;22.70;15.10;;;;;;;2.37;87.73;99977.06;86100;1291;88940;-60
2022/09/30 02:22:43;;;;;;;19.30;13.90;;;;;;;2.39;87.68;99981.95;86075;1298;93039;-60
2022/09/30 02:24:59;;;;;;;22.30;14.30;;;;;;;2.42;87.49;99983.00;86077;1290;81292;-60
2022/09/30 02:27:13;;;;;;;17.30;12.80;;;;;;;2.40;87.67;99987.96;86097;1298;81509;-60
2022/09/30 02:29:33;;;;;;;19.50;14.90;;;;;;;2.42;87.78;99982.09;86037;1289;98942;-60
2022/09/30 02:31:46;;;;;;;18.00;14.80;;;;;;;2.44;87.62;99986.48;86100;1290;88990;-63
2022/09/30 02:34:02;;;;;;;19.70;14.90;;;;;;;2.44;87.68;99989.15;86043;1295;92637;-63
2022/09/30 02:36:18;;;;;;;22.10;15.70;;;;;;;2.41;87.62;99991.02;86077;1290;79930;-60
2022/09/30 02:38:36;;;;;;;19.70;14.20;;;;;;;2.37;87.74;99994.28;86079;1290;81050;-60
2022/09/30 02:40:52;;;;;;;20.10;13.80;;;;;;;2.32;87.92;99991.40;86101;1296;99769;-62
2022/09/30 02:43:03;;;;;;;20.10;13.40;;;;;;;2.26;87.93;99988.94;86086;1290;89061;-61
2022/09/30 02:45:22;;;;;;;17.70;13.30;;;;;;;2.17;87.77;99986.77;86092;1290;95309;-61
2022/09/30 02:47:43;;;;;;;18.80;13.10;;;;;;;2.14;87.87;99992.55;86060;1291;79790;-62
2022/09/30 02:50:00;;;;;;;19.20;13.70;;;;;;;2.10;87.91;99992.63;86051;1293;81352;-62
2022/09/30 02:52:23;;;;;;;18.80;13.40;;;;;;;2.10;87.88;99991.05;86082;1298;98405;-63
2022/09/30 02:54:42;;;;;;;18.20;12.30;;;;;;;2.12;87.73;99991.91;86081;1290;88967;-63
2022/09/30 02:56:59;;;;;;;17.70;13.10;;;;;;;2.07;87.94;100000.21;86057;1282;94621;-62
2022/09/30 02:59:09;;;;;;;16.20;12.00;;;;;;;2.04;88.00;100007.36;86057;1290;81551;-63
2022/09/30 03:01:19;;;;;;;20.60;13.50;;;;;;;2.06;88.10;100008.23;86090;1290;82722;-60
2022/09/30 03:03:32;;;;;;;22.20;14.60;;;;;;;2.04;87.99;100011.50;86101;1290;98311;-60
2022/09/30 03:05:44;;;;;;;18.50;12.50;;;;;;;2.00;88.12;100009.51;86069;1290;88045;-59
2022/09/30 03:07:55;;;;;;;18.00;13.70;;;;;;;2.00;88.32;100006.23;86042;1291;94179;-63
2022/09/30 03:10:14;;;;;;;18.10;13.60;;;;;;;2.00;88.36;100005.61;86077;1298;82104;-63
2022/09/30 03:12:41;;;;;;;21.00;13.90;;;;;;;2.03;88.34;100007.52;86083;1297;82063;-62
2022/09/30 03:15:17;;;;;;;16.60;12.90;;;;;;;2.09;88.17;100011.49;86093;1290;99135;-63
2022/09/30 03:18:00;;;;;;;21.70;14.70;;;;;;;2.12;88.04;100017.08;86099;1290;88882;-63
2022/09/30 03:20:39;;;;;;;19.00;13.80;;;;;;;2.19;88.20;100012.31;86068;1298;95390;-63
2022/09/30 03:23:11;;;;;;;19.70;14.90;;;;;;;2.24;88.35;100007.59;86072;1298;80802;-63
2022/09/30 03:25:32;;;;;;;20.00;14.50;;;;;;;2.26;88.33;100003.73;86063;1291;82572;-62
2022/09/30 03:27:54;;;;;;;20.50;13.70;;;;;;;2.24;88.35;100005.84;86054;1290;97561;-60
2022/09/30 03:30:08;;;;;;;20.40;14.30;;;;;;;2.23;88.21;100012.36;86008;1291;90831;-60
2022/09/30 03:32:33;;;;;;;19.00;14.20;;;;;;;2.22;88.24;100015.27;86113;1291;94279;-62
2022/09/30 03:35:00;;;;;;;17.70;13.30;;;;;;;2.22;88.48;100017.19;86096;1291;80985;-62
2022/09/30 03:37:20;;;;;;;18.60;13.00;;;;;;;2.20;88.41;100017.95;86111;1298;82861;-61
2022/09/30 03:39:41;;;;;;;18.20;13.30;;;;;;;2.16;88.39;100021.48;86023;1298;96583;-60
2022/09/30 03:41:58;;;;;;;20.90;13.90;;;;;;;2.12;88.48;100017.61;86097;1294;89329;-62
2022/09/30 03:44:14;;;;;;;19.10;14.10;;;;;;;2.17;88.46;100012.00;86062;1290;94633;-63
2022/09/30 03:46:28;;;;;;;21.30;14.00;;;;;;;2.23;88.28;100016.39;85934;1293;81304;-59
2022/09/30 03:48:39;;;;;;;23.00;15.70;;;;;;;2.22;88.23;100016.51;86079;1290;82585;-59
2022/09/30 03:50:49;;;;;;;23.90;16.40;;;;;;;2.22;88.31;100013.87;86082;1290;98803;-61
2022/09/30 03:52:57;;;;;;;21.00;15.60;;;;;;;2.24;88.34;100009.68;86066;1287;87097;-60
2022/09/30 03:55:10;;;;;;;20.80;15.60;;;;;;;2.25;88.40;100013.33;86060;1291;95276;-60
2022/09/30 03:57:19;;;;;;;21.60;15.20;;;;;;;2.27;88.48;100014.02;86086;1298;80895;-62
2022/09/30 03:59:30;;;;;;;22.00;16.40;;;;;;;2.29;88.45;100018.11;86092;1298;82452;-62
2022/09/30 04:01:40;;;;;;;22.70;16.90;;;;;;;2.30;88.56;100013.96;86083;1294;97163;-62
2022/09/30 04:03:50;;;;;;;19.40;15.50;;;;;;;2.32;88.49;100014.95;86069;1290;87693;-63
2022/09/30 04:05:59;;;;;;;22.70;15.70;;;;;;;2.36;88.38;100016.92;86081;1290;93021;-61
2022/09/30 04:08:07;;;;;;;23.10;15.30;;;;;;;2.32;88.34;100018.57;86035;1290;81694;-61
2022/09/30 04:10:17;;;;;;;23.00;15.70;;;;;;;2.29;88.56;100018.16;86080;1298;82349;-60
2022/09/30 04:12:25;;;;;;;23.10;15.70;;;;;;;2.27;88.58;100021.35;86088;1295;98615;-59
2022/09/30 04:14:34;;;;;;;23.80;16.10;;;;;;;2.26;88.59;100023.20;86097;1291;88551;-59
2022/09/30 04:16:43;;;;;;;23.40;15.70;;;;;;;2.27;88.64;100028.45;86080;1298;95637;-61
2022/09/30 04:18:52;;;;;;;22.20;15.80;;;;;;;2.30;88.38;100030.65;86033;1290;81975;-62
2022/09/30 04:21:01;;;;;;;23.80;16.20;;;;;;;2.34;88.30;100031.84;86074;1290;82841;-59
2022/09/30 04:23:09;;;;;;;23.20;16.30;;;;;;;2.37;88.23;100033.51;86101;1290;98037;-59
2022/09/30 04:25:19;;;;;;;26.10;17.40;;;;;;;2.37;88.17;100037.09;86070;1291;89067;-59
2022/09/30 04:27:29;;;;;;;25.50;16.10;;;;;;;2.29;88.13;100044.77;86056;1291;95741;-60
2022/09/30 04:29:37;;;;;;;22.60;16.20;;;;;;;2.29;88.32;100052.08;86068;1290;81036;-60
2022/09/30 04:31:46;;;;;;;24.30;16.90;;;;;;;2.28;88.59;100059.41;85934;1291;83153;-61
2022/09/30 04:33:57;;;;;;;26.50;17.60;;;;;;;2.26;88.58;100063.73;85945;1296;100341;-62
2022/09/30 04:36:08;;;;;;;24.20;17.00;;;;;;;2.22;88.60;100062.65;86082;1296;87787;-60
2022/09/30 04:38:18;;;;;;;26.20;17.10;;;;;;;2.23;88.68;100067.41;86072;1290;94367;-59
2022/09/30 04:40:27;;;;;;;26.30;17.40;;;;;;;2.24;88.62;100066.98;86083;1284;81726;-59
2022/09/30 04:42:35;;;;;;;24.80;17.60;;;;;;;2.28;88.75;100068.33;86092;1283;83118;-62
2022/09/30 04:44:45;;;;;;;27.10;18.40;;;;;;;2.32;88.60;100070.59;86078;1284;98802;-63
2022/09/30 04:46:54;;;;;;;26.80;19.00;;;;;;;2.34;88.60;100071.47;86066;1290;88616;-62
2022/09/30 04:49:07;;;;;;;26.30;17.50;;;;;;;2.35;88.78;100072.44;86064;1291;94847;-62
2022/09/30 04:51:17;;;;;;;27.40;19.80;;;;;;;2.42;88.84;100072.55;86097;1290;81031;-61
2022/09/30 04:53:29;;;;;;;30.50;19.60;;;;;;;2.48;88.72;100072.70;86105;1294;83359;-60
2022/09/30 04:55:38;;;;;;;26.60;19.50;;;;;;;2.55;88.72;100066.33;86077;1291;96632;-60
2022/09/30 04:57:49;;;;;;;26.30;18.50;;;;;;;2.61;88.46;100067.45;86062;1290;88963;-62
2022/09/30 04:59:58;;;;;;;27.80;20.40;;;;;;;2.64;88.67;100068.75;86075;1291;95654;-62
2022/09/30 05:02:09;;;;;;;27.40;18.30;;;;;;;2.69;88.50;100073.79;86050;1297;78851;-60
2022/09/30 05:04:18;;;;;;;25.60;17.90;;;;;;;2.71;88.40;100077.15;86105;1298;80586;-61
2022/09/30 05:06:29;;;;;;;25.60;18.40;;;;;;;2.71;88.68;100080.36;86064;1290;97939;-62
2022/09/30 05:08:39;;;;;;;26.90;17.60;;;;;;;2.74;88.65;100084.02;86093;1291;87695;-62
2022/09/30 05:10:59;;;;;;;25.20;18.20;;;;;;;2.76;88.67;100092.67;86094;1296;94717;-61
2022/09/30 05:13:07;;;;;;;26.20;18.50;;;;;;;2.77;88.83;100101.41;86099;1290;79864;-60
2022/09/30 05:15:20;;;;;;;25.40;18.90;;;;;;;2.83;88.81;100102.88;86096;1298;82430;-60
2022/09/30 05:17:31;;;;;;;28.10;20.00;;;;;;;2.86;88.80;100104.64;86055;1290;98875;-59
2022/09/30 05:19:40;;;;;;;23.80;18.70;;;;;;;2.88;88.85;100103.23;86100;1296;87367;-59
2022/09/30 05:21:51;;;;;;;26.50;19.30;;;;;;;2.92;88.95;100099.85;86057;1295;95067;-58
2022/09/30 05:24:04;;;;;;;28.60;20.60;;;;;;;2.97;88.90;100097.71;86086;1291;83145;-58
2022/09/30 05:26:13;;;;;;;27.60;20.80;;;;;;;3.08;88.81;100095.41;86112;1294;82151;-62
2022/09/30 05:28:24;;;;;;;33.20;22.40;;;;;;;3.21;88.83;100094.35;86100;1288;99318;-62
2022/09/30 05:30:33;;;;;;;29.30;21.50;;;;;;;3.30;88.78;100096.79;86097;1291;87254;-63
2022/09/30 05:32:41;;;;;;;30.10;22.00;;;;;;;3.36;88.69;100096.89;86076;1298;95023;-59
2022/09/30 05:34:50;;;;;;;28.40;22.00;;;;;;;3.43;88.81;100102.30;86072;1295;81676;-59
2022/09/30 05:36:59;;;;;;;29.50;21.70;;;;;;;3.47;88.93;100106.30;86102;1290;83130;-61
2022/09/30 05:39:08;;;;;;;27.70;19.60;;;;;;;3.52;88.83;100106.20;86071;1290;98133;-62
2022/09/30 05:41:19;;;;;;;30.90;22.20;;;;;;;3.61;88.63;100105.95;86081;1291;85099;-62
2022/09/30 05:43:31;;;;;;;37.00;26.10;;;;;;;3.63;88.47;100116.63;86048;1298;95524;-63
2022/09/30 05:45:41;;;;;;;35.70;24.80;;;;;;;3.59;88.43;100119.36;86056;1294;80478;-63
2022/09/30 05:47:56;;;;;;;33.00;23.20;;;;;;;3.62;88.73;100116.98;86121;1290;82535;-61
2022/09/30 05:50:06;;;;;;;33.10;22.50;;;;;;;3.68;88.73;100120.95;86095;1291;98626;-61
2022/09/30 05:52:15;;;;;;;33.60;23.60;;;;;;;3.69;88.63;100122.45;86098;1296;87711;-61
2022/09/30 05:54:23;;;;;;;31.80;22.90;;;;;;;3.69;88.78;100125.27;86091;1290;94784;-61
2022/09/30 05:56:33;;;;;;;27.10;22.30;;;;;;;3.79;88.66;100126.27;86080;1290;81530;-63
2022/09/30 05:58:43;;;;;;;31.80;22.50;;;;;;;3.95;88.79;100114.33;86116;1297;83049;-63
2022/09/30 06:00:55;;;;;;;32.60;22.80;;;;;;;4.13;88.70;100110.30;86048;1291;99254;-63
2022/09/30 06:03:03;;;;;;;30.80;22.30;;;;;;;4.27;88.89;100116.95;86080;1295;87663;-63
2022/09/30 06:05:14;;;;;;;31.80;23.60;;;;;;;4.42;88.89;100119.80;85999;1292;97417;-63
2022/09/30 06:07:23;;;;;;;32.40;23.30;;;;;;;4.56;88.80;100122.66;86106;1290;80256;-60
2022/09/30 06:09:31;;;;;;;30.60;22.90;;;;;;;4.66;89.02;100124.61;86102;1287;82161;-60
2022/09/30 06:11:41;;;;;;;28.90;21.70;;;;;;;4.77;89.00;100122.55;86085;1296;98368;-62
2022/09/30 06:13:51;;;;;;;32.10;23.40;;;;;;;4.85;88.75;100125.84;86060;1291;89623;-63
2022/09/30 06:16:04;;;;;;;32.00;23.90;;;;;;;4.90;88.88;100123.73;86089;1290;95770;-59
2022/09/30 06:18:14;;;;;;;29.60;23.10;;;;;;;4.95;88.82;100128.73;86094;1291;81848;-60
2022/09/30 06:20:23;;;;;;;33.50;24.10;;;;;;;5.06;88.67;100131.11;86089;1290;81793;-61
2022/09/30 06:22:35;;;;;;;28.40;23.20;;;;;;;5.19;88.81;100138.41;86104;1290;99088;-63
2022/09/30 06:24:44;;;;;;;29.20;23.00;;;;;;;5.38;88.99;100139.36;86107;1291;89278;-62
2022/09/30 06:26:53;;;;;;;34.80;25.80;;;;;;;5.62;88.94;100137.59;86035;1298;95376;-63
2022/09/30 06:29:01;;;;;;;34.10;26.00;;;;;;;5.86;89.01;100134.81;86077;1297;80079;-63
2022/09/30 06:31:11;;;;;;;36.40;26.80;;;;;;;6.09;89.09;100141.67;86087;1289;82759;-61
2022/09/30 06:33:21;;;;;;;37.60;28.20;;;;;;;6.29;89.20;100137.98;86073;1291;97917;-61
2022/09/30 06:35:31;;;;;;;33.20;27.00;;;;;;;6.51;89.22;100143.34;86107;1290;90226;-61
2022/09/30 06:37:41;;;;;;;34.70;27.00;;;;;;;6.70;89.22;100144.82;85930;1294;97126;-62
2022/09/30 06:39:54;;;;;;;36.80;27.40;;;;;;;6.86;89.22;100142.96;86144;1290;80625;-59
2022/09/30 06:42:04;;;;;;;35.80;27.10;;;;;;;7.02;89.24;100150.27;86131;1290;82037;-63
2022/09/30 06:44:15;;;;;;;40.10;28.20;;;;;;;7.17;89.31;100147.51;86131;1289;98962;-63
2022/09/30 06:46:27;;;;;;;38.10;28.20;;;;;;;7.35;89.13;100148.13;86100;1283;88316;-62
2022/09/30 06:48:36;;;;;;;42.30;27.60;;;;;;;7.55;89.18;100150.65;86086;1288;94677;-62
2022/09/30 06:50:54;;;;;;;37.00;27.40;;;;;;;7.77;89.32;100147.88;86102;1288;81147;-60
2022/09/30 06:53:05;;;;;;;36.70;28.50;;;;;;;7.97;89.28;100143.23;86100;1290;80008;-59
2022/09/30 06:55:17;;;;;;;34.50;27.30;;;;;;;8.15;89.26;100147.95;86091;1293;97715;-59
2022/09/30 06:57:26;;;;;;;37.20;27.50;;;;;;;8.27;89.17;100149.39;86119;1291;88990;-64
2022/09/30 06:59:36;;;;;;;36.10;26.20;;;;;;;8.46;89.28;100143.35;86103;1296;95534;-60
2022/09/30 07:01:46;;;;;;;36.60;27.60;;;;;;;8.73;89.33;100137.88;86113;1290;82124;-61
2022/09/30 07:03:56;;;;;;;32.80;27.10;;;;;;;8.97;89.33;100144.31;86152;1293;81658;-61
2022/09/30 07:06:07;;;;;;;34.30;26.50;;;;;;;9.22;89.14;100143.05;86110;1296;99295;-62
2022/09/30 07:08:16;;;;;;;33.60;27.30;;;;;;;9.53;88.99;100142.83;86113;1296;86850;-62
2022/09/30 07:10:25;;;;;;;33.70;27.60;;;;;;;9.86;89.06;100142.84;86088;1290;93659;-63
2022/09/30 07:12:35;;;;;;;33.10;26.70;;;;;;;10.14;88.79;100147.89;86136;1294;80063;-60
2022/09/30 07:14:43;;;;;;;34.30;27.90;;;;;;;10.41;88.31;100147.17;86136;1295;80394;-61
2022/09/30 07:16:52;;;;;;;34.40;27.80;;;;;;;10.70;88.27;100145.90;86120;1293;99097;-62
2022/09/30 07:19:02;;;;;;;33.80;26.20;;;;;;;11.10;88.04;100142.94;86135;1280;89303;-60
2022/09/30 07:21:14;;;;;;;37.30;27.10;;;;;;;11.41;87.65;100141.55;86128;1296;95273;-62
2022/09/30 07:23:24;;;;;;;32.90;25.80;;;;;;;11.63;87.00;100143.62;86084;1288;82222;-60
2022/09/30 07:25:33;;;;;;;34.80;26.60;;;;;;;11.94;86.63;100148.16;86119;1288;83035;-59
2022/09/30 07:27:45;;;;;;;26.20;22.40;;;;;;;12.41;86.54;100143.20;86114;1296;97198;-60
2022/09/30 07:30:01;;;;;;;31.40;25.00;;;;;;;12.95;86.21;100146.77;86143;1290;87159;-60
2022/09/30 07:32:11;;;;;;;32.70;24.10;;;;;;;13.52;85.58;100153.41;86130;1290;95193;-61
2022/09/30 07:34:20;;;;;;;31.90;25.50;;;;;;;13.76;84.07;100156.75;86118;1290;80873;-60
2022/09/30 07:36:30;;;;;;;29.60;21.70;;;;;;;13.68;83.63;100158.86;86167;1296;83318;-64
2022/09/30 07:38:42;;;;;;;24.90;21.70;;;;;;;13.55;83.29;100161.67;86118;1288;98315;-59
2022/09/30 07:41:01;;;;;;;26.20;21.40;;;;;;;13.44;83.21;100161.92;86104;1290;87423;-63
2022/09/30 07:43:09;;;;;;;27.00;20.40;;;;;;;13.47;83.00;100163.28;86107;1290;95227;-64
2022/09/30 07:45:23;;;;;;;24.30;21.10;;;;;;;13.74;83.20;100168.33;85978;1296;79453;-64
2022/09/30 07:47:32;;;;;;;28.40;21.70;;;;;;;14.45;83.03;100172.96;86119;1294;81762;-64
2022/09/30 07:49:42;;;;;;;27.90;21.30;;;;;;;14.81;81.56;100175.21;85984;1290;100665;-64
2022/09/30 07:51:51;;;;;;;25.80;22.00;;;;;;;14.78;80.85;100178.90;86132;1293;89230;-64
2022/09/30 07:54:04;;;;;;;24.70;22.00;;;;;;;14.79;81.05;100186.10;86099;1296;94486;-63
2022/09/30 07:56:15;;;;;;;26.10;21.70;;;;;;;15.03;80.96;100189.45;86166;1290;79972;-62
2022/09/30 07:58:23;;;;;;;25.70;21.10;;;;;;;15.58;80.42;100192.34;86130;1289;81987;-63
2022/09/30 08:00:32;;;;;;;27.20;23.10;;;;;;;16.13;80.17;100194.09;86104;1296;98147;-65
2022/09/30 08:02:44;;;;;;;32.80;25.70;;;;;;;16.45;79.30;100200.05;86111;1294;89049;-64
2022/09/30 08:04:53;;;;;;;29.90;23.90;;;;;;;16.86;79.30;100199.34;86091;1296;95283;-64
2022/09/30 08:07:05;;;;;;;29.50;24.00;;;;;;;17.43;77.65;100193.98;86129;1290;80111;-60
2022/09/30 08:09:15;;;;;;;27.10;22.20;;;;;;;17.57;76.52;100192.42;86128;1295;82246;-60
2022/09/30 08:11:27;;;;;;;31.10;23.30;;;;;;;17.70;76.12;100195.43;86172;1289;99411;-60
2022/09/30 08:13:42;;;;;;;23.40;19.20;;;;;;;17.98;75.65;100193.99;86158;1290;88969;-59
2022/09/30 08:15:52;;;;;;;25.70;20.70;;;;;;;18.28;75.18;100200.77;86138;1288;94735;-61
2022/09/30 08:18:00;;;;;;;24.30;19.20;;;;;;;18.17;74.02;100202.64;86139;1288;80849;-61
2022/09/30 08:20:13;;;;;;;27.70;19.80;;;;;;;17.78;73.49;100209.16;86135;1296;83395;-60
2022/09/30 08:22:23;;;;;;;22.60;19.80;;;;;;;17.59;72.76;100209.17;86134;1296;99155;-61
2022/09/30 08:24:36;;;;;;;27.20;20.20;;;;;;;17.45;71.77;100205.08;86103;1294;87972;-59
2022/09/30 08:26:50;;;;;;;27.80;21.20;;;;;;;16.86;71.95;100210.46;86101;1281;94596;-64
2022/09/30 08:29:04;;;;;;;22.90;18.20;;;;;;;16.48;71.76;100207.98;86121;1296;80151;-63
2022/09/30 08:31:19;;;;;;;23.80;18.40;;;;;;;16.27;71.10;100210.79;86126;1290;80140;-58
2022/09/30 08:33:37;;;;;;;22.60;19.30;;;;;;;16.00;71.44;100215.14;86113;1295;96386;-59
2022/09/30 08:35:51;;;;;;;27.50;22.60;;;;;;;15.76;71.20;100219.20;86050;1289;86230;-59
2022/09/30 08:38:01;;;;;;;24.40;19.70;;;;;;;15.56;71.69;100221.52;86133;1293;94894;-58
2022/09/30 08:40:21;;;;;;;26.60;21.10;;;;;;;15.41;71.83;100217.77;86126;1291;80218;-58
2022/09/30 08:42:47;;;;;;;24.10;19.90;;;;;;;15.36;71.73;100219.73;86155;1290;80446;-61
2022/09/30 08:45:05;;;;;;;26.50;20.90;;;;;;;15.16;71.73;100220.38;86117;1296;97320;-62
2022/09/30 08:47:36;;;;;;;24.80;21.60;;;;;;;14.91;71.99;100220.86;85903;1289;86865;-60
2022/09/30 08:50:01;;;;;;;25.00;19.00;;;;;;;14.73;71.91;100221.45;86112;1296;94986;-60
2022/09/30 08:52:17;;;;;;;24.60;19.60;;;;;;;14.69;71.80;100227.38;86102;1290;79999;-59
2022/09/30 08:54:33;;;;;;;25.00;19.30;;;;;;;14.51;71.93;100226.91;86152;1290;81204;-59
2022/09/30 08:56:45;;;;;;;32.30;22.70;;;;;;;14.39;72.35;100230.67;86133;1289;99583;-61
2022/09/30 08:59:04;;;;;;;37.20;25.60;;;;;;;14.34;72.25;100231.37;85976;1299;88546;-63
2022/09/30 09:01:25;;;;;;;33.90;24.60;;;;;;;14.21;72.04;100229.36;86111;1293;93722;-59
2022/09/30 09:03:34;;;;;;;33.50;23.80;;;;;;;14.10;72.46;100232.05;86132;1296;78425;-59
2022/09/30 09:05:59;;;;;;;34.70;24.70;;;;;;;14.03;72.78;100232.33;86128;1295;83195;-59
2022/09/30 09:08:20;;;;;;;34.70;23.40;;;;;;;13.90;73.08;100235.30;86114;1294;97104;-60
2022/09/30 09:10:42;;;;;;;38.00;25.90;;;;;;;13.79;73.03;100237.61;86091;1296;88597;-60
2022/09/30 09:13:02;;;;;;;35.30;24.30;;;;;;;13.66;73.01;100238.52;86132;1295;93097;-62
2022/09/30 09:15:55;;;;;;;33.10;25.30;;;;;;;13.53;73.05;100240.48;86136;1296;78601;-63
2022/09/30 09:18:36;;;;;;;37.20;25.80;;;;;;;13.42;73.37;100240.02;86205;1296;83159;-62
2022/09/30 09:20:53;;;;;;;33.90;25.90;;;;;;;13.33;73.44;100242.02;86213;1290;99035;-61
2022/09/30 09:23:04;;;;;;;34.70;25.70;;;;;;;13.22;73.45;100244.75;86139;1290;87913;-63
2022/09/30 09:25:19;;;;;;;34.70;26.10;;;;;;;12.91;73.73;100249.39;86119;1296;94548;-62
2022/09/30 09:27:45;;;;;;;35.70;25.70;;;;;;;12.79;73.84;100249.34;86136;1296;79387;-62
2022/09/30 09:30:06;;;;;;;33.00;25.10;;;;;;;12.85;74.04;100247.42;86148;1296;81325;-63
2022/09/30 09:32:18;;;;;;;35.10;25.40;;;;;;;12.87;74.30;100249.48;86136;1296;98254;-60
2022/09/30 09:34:29;;;;;;;34.00;25.70;;;;;;;12.92;74.37;100246.27;86141;1296;89051;-63
2022/09/30 09:36:54;;;;;;;32.70;24.60;;;;;;;13.01;74.49;100247.35;86141;1287;94861;-62
2022/09/30 09:39:29;;;;;;;33.10;24.70;;;;;;;13.09;74.56;100244.33;86097;1296;82641;-63
2022/09/30 09:41:52;;;;;;;31.90;23.00;;;;;;;13.18;74.45;100247.59;86085;1297;83180;-61
2022/09/30 09:44:16;;;;;;;34.70;24.60;;;;;;;13.20;74.53;100247.16;86135;1296;97045;-61
2022/09/30 09:46:30;;;;;;;34.30;25.10;;;;;;;13.26;74.47;100244.23;86116;1290;87258;-60
2022/09/30 09:48:41;;;;;;;32.30;24.30;;;;;;;13.35;74.61;100242.42;86133;1290;94999;-60
2022/09/30 09:51:03;;;;;;;29.90;23.10;;;;;;;13.47;74.50;100240.90;86082;1290;81041;-61
2022/09/30 09:53:47;;;;;;;29.80;23.50;;;;;;;13.61;74.25;100239.41;86157;1291;83176;-62
2022/09/30 09:56:02;;;;;;;30.90;24.80;;;;;;;13.76;74.36;100240.41;86131;1289;99289;-61
2022/09/30 09:58:18;;;;;;;32.10;24.80;;;;;;;13.86;73.95;100234.95;86142;1290;88391;-62
2022/09/30 10:03:15;;;;;;;26.60;23.60;;;;;;;14.16;73.90;100231.98;86136;1288;80033;-61
2022/09/30 10:05:38;;;;;;;26.40;23.00;;;;;;;14.40;73.88;100232.17;86108;1290;81639;-61
2022/09/30 10:08:08;;;;;;;28.80;22.50;;;;;;;14.45;73.18;100232.31;86150;1291;98818;-64
2022/09/30 10:10:23;;;;;;;28.90;22.70;;;;;;;14.40;73.24;100228.52;86137;1296;88398;-65
2022/09/30 10:12:32;;;;;;;28.60;23.00;;;;;;;14.58;72.81;100222.44;86143;1296;94961;-63
2022/09/30 10:14:55;;;;;;;24.00;20.00;;;;;;;14.72;72.36;100224.05;86136;1294;80571;-63
2022/09/30 10:17:09;;;;;;;26.20;21.20;;;;;;;14.89;71.95;100223.22;86130;1295;83343;-64
2022/09/30 10:19:30;;;;;;;25.50;21.90;;;;;;;15.11;72.00;100219.30;86111;1281;99341;-64
2022/09/30 10:21:41;;;;;;;24.30;21.10;;;;;;;15.20;70.61;100211.60;86148;1296;89631;-62